createdAt,value
2022-10-06T00:01:33.743Z,100402.50
2022-10-06T00:04:01.945Z,100418.69
2022-10-06T00:06:29.559Z,100427.94
2022-10-06T00:08:57.169Z,100435.16
2022-10-06T00:11:24.901Z,100434.97
2022-10-06T00:13:52.515Z,100429.31
2022-10-06T00:16:21.907Z,100435.19
2022-10-06T00:18:49.530Z,100436.28
2022-10-06T00:21:17.154Z,100422.91
2022-10-06T00:23:45.115Z,100434.47
2022-10-06T00:26:14.730Z,100436.16
2022-10-06T00:28:42.881Z,100436.28
2022-10-06T00:31:10.898Z,100426.44
2022-10-06T00:33:38.745Z,100439.81
2022-10-06T00:36:07.619Z,100431.09
2022-10-06T00:38:35.140Z,100444.47
2022-10-06T00:41:03.024Z,100445.44
2022-10-06T00:43:30.739Z,100447.28
2022-10-06T00:45:58.325Z,100441.06
2022-10-06T00:48:26.342Z,100439.25
2022-10-06T00:50:54.265Z,100447.16
2022-10-06T00:53:22.162Z,100450.66
2022-10-06T00:55:49.950Z,100460.38
2022-10-06T00:58:17.552Z,100456.72
2022-10-06T01:00:45.157Z,100464.63
2022-10-06T01:03:12.708Z,100473.53
2022-10-06T01:05:42.462Z,100466.34
2022-10-06T01:08:10.054Z,100486.94
2022-10-06T01:10:37.607Z,100485.94
2022-10-06T01:13:05.201Z,100471.56
2022-10-06T01:15:34.187Z,100484.84
2022-10-06T01:18:02.639Z,100496.38
2022-10-06T01:20:30.238Z,100493.59
2022-10-06T01:22:58.460Z,100502.44
2022-10-06T01:25:25.998Z,100509.66
2022-10-06T01:27:55.044Z,100513.44
2022-10-06T01:30:22.992Z,100516.38
2022-10-06T01:32:50.535Z,100514.94
2022-10-06T01:35:18.120Z,100525.91
2022-10-06T01:37:45.640Z,100527.13
2022-10-06T01:40:13.185Z,100523.03
2022-10-06T01:42:41.274Z,100524.13
2022-10-06T01:45:08.789Z,100535.94
2022-10-06T01:47:36.345Z,100537.63
2022-10-06T01:50:08.443Z,100539.59
2022-10-06T01:52:36.011Z,100541.66
2022-10-06T01:55:03.606Z,100550.78
2022-10-06T01:57:31.208Z,100552.00
2022-10-06T01:59:58.797Z,100553.25
2022-10-06T02:02:26.346Z,100551.78
2022-10-06T02:04:56.755Z,100563.03
2022-10-06T02:07:25.190Z,100572.00
2022-10-06T02:09:52.737Z,100561.56
2022-10-06T02:12:20.706Z,100566.91
2022-10-06T02:14:48.235Z,100564.34
2022-10-06T02:17:15.778Z,100572.38
2022-10-06T02:19:43.764Z,100583.22
2022-10-06T02:22:11.340Z,100580.66
2022-10-06T02:24:38.885Z,100589.66
2022-10-06T02:27:07.084Z,100589.66
2022-10-06T02:29:34.687Z,100595.03
2022-10-06T02:32:02.951Z,100589.06
2022-10-06T02:34:30.543Z,100598.78
2022-10-06T02:36:58.064Z,100603.16
2022-10-06T02:39:25.612Z,100613.88
2022-10-06T02:41:53.182Z,100617.53
2022-10-06T02:44:21.096Z,100608.78
2022-10-06T02:46:48.645Z,100616.06
2022-10-06T02:49:16.358Z,100618.88
2022-10-06T02:51:43.895Z,100623.34
2022-10-06T02:54:12.471Z,100629.69
2022-10-06T02:56:40.383Z,100633.34
2022-10-06T02:59:07.945Z,100632.47
2022-10-06T03:01:35.569Z,100647.69
2022-10-06T03:04:03.177Z,100648.66
2022-10-06T03:06:31.074Z,100653.25
2022-10-06T03:08:59.336Z,100659.59
2022-10-06T03:11:26.956Z,100663.25
2022-10-06T03:13:54.518Z,100666.88
2022-10-06T03:16:22.164Z,100670.19
2022-10-06T03:18:50.235Z,100679.69
2022-10-06T03:21:18.121Z,100680.28
2022-10-06T03:23:45.653Z,100675.28
2022-10-06T03:26:13.216Z,100680.28
2022-10-06T03:28:40.849Z,100675.41
2022-10-06T03:31:08.497Z,100689.25
2022-10-06T03:33:36.778Z,100691.56
2022-10-06T03:36:04.315Z,100693.03
2022-10-06T03:38:32.800Z,100695.34
2022-10-06T03:41:00.430Z,100700.44
2022-10-06T03:43:28.003Z,100704.84
2022-10-06T03:45:55.915Z,100701.28
2022-10-06T03:48:23.490Z,100708.34
2022-10-06T03:50:51.564Z,100707.50
2022-10-06T03:53:19.172Z,100701.56
2022-10-06T03:55:46.774Z,100715.16
2022-10-06T03:58:14.912Z,100731.69
2022-10-06T04:00:42.986Z,100728.69
2022-10-06T04:03:10.606Z,100741.69
2022-10-06T04:05:38.172Z,100746.53
2022-10-06T04:08:05.770Z,100747.63
2022-10-06T04:10:33.913Z,100748.88
2022-10-06T04:13:01.437Z,100759.94
2022-10-06T04:15:28.961Z,100763.53
2022-10-06T04:17:56.602Z,100763.53
2022-10-06T04:20:24.176Z,100769.16
2022-10-06T04:22:53.211Z,100769.50
2022-10-06T04:25:20.775Z,100777.78
2022-10-06T04:27:48.333Z,100783.34
2022-10-06T04:30:15.930Z,100781.03
2022-10-06T04:32:43.596Z,100783.19
2022-10-06T04:35:11.511Z,100789.66
2022-10-06T04:37:39.117Z,100795.31
2022-10-06T04:40:06.727Z,100796.53
2022-10-06T04:42:35.389Z,100799.31
2022-10-06T04:45:03.078Z,100796.97
2022-10-06T04:47:31.250Z,100806.06
2022-10-06T04:49:58.816Z,100805.34
2022-10-06T04:52:26.382Z,100805.56
2022-10-06T04:54:54.007Z,100807.47
2022-10-06T04:57:21.551Z,100813.31
2022-10-06T05:00:10.075Z,100829.56
2022-10-06T05:02:41.905Z,100838.66
2022-10-06T05:05:10.039Z,100831.72
2022-10-06T05:07:37.630Z,100840.94
2022-10-06T05:10:05.213Z,100844.56
2022-10-06T05:12:33.145Z,100846.38
2022-10-06T05:15:00.878Z,100851.88
2022-10-06T05:17:28.540Z,100851.97
2022-10-06T05:19:56.315Z,100860.09
2022-10-06T05:22:23.896Z,100855.72
2022-10-06T05:24:54.221Z,100863.00
2022-10-06T05:27:23.358Z,100866.84
2022-10-06T05:29:50.967Z,100875.81
2022-10-06T05:32:18.509Z,100881.41
2022-10-06T05:34:46.126Z,100889.63
2022-10-06T05:37:13.723Z,100888.16
2022-10-06T05:39:41.486Z,100901.50
2022-10-06T05:42:09.119Z,100911.41
2022-10-06T05:44:36.746Z,100907.19
2022-10-06T05:47:04.460Z,100919.66
2022-10-06T05:49:32.822Z,100916.25
2022-10-06T05:52:00.498Z,100916.34
2022-10-06T05:54:28.132Z,100919.13
2022-10-06T05:56:55.765Z,100929.06
2022-10-06T05:59:23.336Z,100930.03
2022-10-06T06:01:52.076Z,100929.16
2022-10-06T06:04:20.538Z,100936.44
2022-10-06T06:06:48.830Z,100935.72
2022-10-06T06:09:16.463Z,100943.72
2022-10-06T06:11:44.510Z,100943.81
2022-10-06T06:14:12.493Z,100942.00
2022-10-06T06:16:39.237Z,100962.41
2022-10-06T06:19:07.173Z,100960.56
2022-10-06T06:21:34.772Z,100970.19
2022-10-06T06:24:02.368Z,100972.88
2022-10-06T06:26:30.318Z,100975.44
2022-10-06T06:29:00.301Z,100975.44
2022-10-06T06:31:28.194Z,100981.53
2022-10-06T06:33:56.057Z,100976.94
2022-10-06T06:36:25.025Z,100984.00
2022-10-06T06:38:53.232Z,100999.78
2022-10-06T06:41:20.923Z,100997.03
2022-10-06T06:43:49.953Z,100996.91
2022-10-06T06:46:17.711Z,101005.69
2022-10-06T06:48:45.543Z,101019.78
2022-10-06T06:51:13.622Z,101017.09
2022-10-06T06:53:41.737Z,101025.84
2022-10-06T06:56:09.679Z,101035.47
2022-10-06T06:58:37.279Z,101043.31
2022-10-06T07:01:05.058Z,101041.38
2022-10-06T07:03:56.238Z,101041.13
2022-10-06T07:06:23.529Z,101048.81
2022-10-06T07:08:54.381Z,101045.97
2022-10-06T07:11:22.022Z,101050.97
2022-10-06T07:13:50.106Z,101053.31
2022-10-06T07:16:35.159Z,101055.56
2022-10-06T07:19:24.524Z,101055.88
2022-10-06T07:22:10.195Z,101064.00
2022-10-06T07:24:55.517Z,101062.06
2022-10-06T07:27:23.474Z,101071.75
2022-10-06T07:29:55.787Z,101072.94
2022-10-06T07:32:23.697Z,101080.28
2022-10-06T07:34:52.271Z,101083.25
2022-10-06T07:37:20.612Z,101085.13
2022-10-06T07:39:49.777Z,101086.78
2022-10-06T07:42:17.603Z,101101.09
2022-10-06T07:45:05.466Z,101101.47
2022-10-06T07:47:33.840Z,101098.97
2022-10-06T07:50:01.983Z,101107.28
2022-10-06T07:52:29.903Z,101108.88
2022-10-06T07:54:58.630Z,101116.81
2022-10-06T07:57:27.027Z,101113.97
2022-10-06T07:59:58.001Z,101114.75
2022-10-06T08:02:31.538Z,101111.75
2022-10-06T08:05:02.506Z,101117.59
2022-10-06T08:07:30.311Z,101115.44
2022-10-06T08:09:58.454Z,101123.97
2022-10-06T08:12:43.079Z,101129.81
2022-10-06T08:15:12.252Z,101121.47
2022-10-06T08:17:40.103Z,101133.63
2022-10-06T08:20:07.802Z,101134.63
2022-10-06T08:22:36.511Z,101152.09
2022-10-06T08:25:06.839Z,101148.47
2022-10-06T08:27:35.738Z,101151.19
2022-10-06T08:30:03.507Z,101156.09
2022-10-06T08:32:32.657Z,101153.91
2022-10-06T08:35:00.431Z,101164.03
2022-10-06T08:37:30.229Z,101163.66
2022-10-06T08:39:58.144Z,101166.09
2022-10-06T08:42:26.002Z,101165.97
2022-10-06T08:44:57.244Z,101177.44
2022-10-06T08:47:25.119Z,101170.38
2022-10-06T08:49:54.360Z,101172.78
2022-10-06T08:52:22.225Z,101167.31
2022-10-06T08:54:49.964Z,101174.38
2022-10-06T08:57:18.098Z,101169.03
2022-10-06T08:59:46.344Z,101181.94
2022-10-06T09:02:16.022Z,101171.97
2022-10-06T09:04:44.109Z,101175.88
2022-10-06T09:07:11.876Z,101172.31
2022-10-06T09:09:40.420Z,101180.72
2022-10-06T09:12:08.264Z,101180.84
2022-10-06T09:14:36.929Z,101184.84
2022-10-06T09:17:04.649Z,101200.25
2022-10-06T09:19:33.810Z,101192.56
2022-10-06T09:22:03.088Z,101197.81
2022-10-06T09:24:30.936Z,101193.19
2022-10-06T09:26:59.195Z,101200.16
2022-10-06T09:29:32.021Z,101196.34
2022-10-06T09:31:59.789Z,101204.41
2022-10-06T09:34:27.935Z,101204.66
2022-10-06T09:37:00.936Z,101204.13
2022-10-06T09:39:32.731Z,101207.56
2022-10-06T09:42:00.641Z,101219.53
2022-10-06T09:44:29.211Z,101218.81
2022-10-06T09:46:57.002Z,101216.25
2022-10-06T09:49:24.844Z,101225.97
2022-10-06T09:51:52.874Z,101220.19
2022-10-06T09:54:20.641Z,101228.94
2022-10-06T09:56:49.012Z,101225.59
2022-10-06T09:59:16.717Z,101223.50
2022-10-06T10:01:44.615Z,101220.34
2022-10-06T10:04:20.501Z,101214.72
2022-10-06T10:06:49.618Z,101204.41
2022-10-06T10:09:20.679Z,101215.44
2022-10-06T10:12:07.531Z,101216.78
2022-10-06T10:14:35.992Z,101211.69
2022-10-06T10:17:04.439Z,101210.56
2022-10-06T10:19:33.053Z,101217.59
2022-10-06T10:22:01.111Z,101215.72
2022-10-06T10:24:29.261Z,101218.81
2022-10-06T10:26:58.102Z,101224.72
2022-10-06T10:29:33.008Z,101223.22
2022-10-06T10:32:02.949Z,101221.47
2022-10-06T10:34:30.678Z,101225.09
2022-10-06T10:36:58.829Z,101219.97
2022-10-06T10:39:26.752Z,101231.56
2022-10-06T10:41:55.172Z,101221.78
2022-10-06T10:44:23.275Z,101219.50
2022-10-06T10:46:51.205Z,101221.38
2022-10-06T10:49:19.479Z,101219.47
2022-10-06T10:51:47.451Z,101215.16
2022-10-06T10:54:15.519Z,101223.81
2022-10-06T10:56:44.131Z,101226.22
2022-10-06T10:59:12.085Z,101234.06
2022-10-06T11:01:39.901Z,101234.13
2022-10-06T11:04:07.717Z,101239.75
2022-10-06T11:06:35.894Z,101237.19
2022-10-06T11:09:03.854Z,101235.19
2022-10-06T11:11:31.572Z,101232.22
2022-10-06T11:13:59.823Z,101238.88
2022-10-06T11:16:27.610Z,101232.47
2022-10-06T11:18:55.427Z,101232.72
2022-10-06T11:21:24.248Z,101240.16
2022-10-06T11:23:53.568Z,101241.00
2022-10-06T11:26:21.738Z,101244.00
2022-10-06T11:28:50.113Z,101245.13
2022-10-06T11:31:21.969Z,101237.44
2022-10-06T11:33:50.752Z,101241.13
2022-10-06T11:36:18.637Z,101236.84
2022-10-06T11:38:46.618Z,101230.41
2022-10-06T11:41:14.489Z,101223.34
2022-10-06T11:43:42.834Z,101223.97
2022-10-06T11:46:10.662Z,101226.91
2022-10-06T11:48:38.713Z,101215.06
2022-10-06T11:51:07.796Z,101225.38
2022-10-06T11:53:37.099Z,101217.38
2022-10-06T11:56:04.997Z,101213.31
2022-10-06T11:58:42.455Z,101207.69
2022-10-06T12:01:10.930Z,101210.78
2022-10-06T12:03:38.779Z,101204.88
2022-10-06T12:06:06.808Z,101210.88
2022-10-06T12:08:34.730Z,101211.34
2022-10-06T12:11:02.590Z,101204.59
2022-10-06T12:19:06.558Z,101206.88
2022-10-06T12:21:34.426Z,101203.97
2022-10-06T12:24:02.827Z,101209.75
2022-10-06T12:26:31.348Z,101209.66
2022-10-06T12:28:59.157Z,101212.41
2022-10-06T12:31:27.431Z,101204.69
2022-10-06T12:33:55.549Z,101213.69
2022-10-06T12:36:23.746Z,101215.72
2022-10-06T12:38:51.869Z,101214.59
2022-10-06T12:41:20.071Z,101208.31
2022-10-06T12:43:47.945Z,101216.56
2022-10-06T12:46:16.562Z,101223.47
2022-10-06T12:48:44.814Z,101215.16
2022-10-06T12:51:13.263Z,101211.22
2022-10-06T12:53:41.487Z,101210.53
2022-10-06T12:56:09.369Z,101208.34
2022-10-06T12:58:37.235Z,101202.38
2022-10-06T13:01:05.366Z,101207.41
2022-10-06T13:03:33.485Z,101200.75
2022-10-06T13:06:01.359Z,101208.63
2022-10-06T13:08:29.167Z,101192.16
2022-10-06T13:10:56.967Z,101200.84
2022-10-06T13:13:25.237Z,101198.75
2022-10-06T13:15:56.295Z,101195.94
2022-10-06T13:18:24.594Z,101195.84
2022-10-06T13:20:52.395Z,101191.59
2022-10-06T13:23:20.205Z,101198.25
2022-10-06T13:25:48.382Z,101191.09
2022-10-06T13:28:16.680Z,101193.31
2022-10-06T13:30:44.610Z,101194.19
2022-10-06T13:33:12.650Z,101201.63
2022-10-06T13:35:40.818Z,101194.69
2022-10-06T13:38:08.901Z,101193.41
2022-10-06T13:40:45.288Z,101189.41
2022-10-06T13:43:13.513Z,101194.03
2022-10-06T13:45:41.257Z,101193.19
2022-10-06T13:48:09.413Z,101195.50
2022-10-06T13:50:38.040Z,101197.19
2022-10-06T13:53:05.795Z,101189.78
2022-10-06T13:55:33.620Z,101189.78
2022-10-06T13:58:04.924Z,101178.34
2022-10-06T14:00:36.436Z,101179.75
2022-10-06T14:03:04.841Z,101185.50
2022-10-06T14:05:32.673Z,101188.72
2022-10-06T14:08:00.378Z,101193.53
2022-10-06T14:10:31.622Z,101194.13
2022-10-06T14:12:59.855Z,101192.56
2022-10-06T14:15:28.977Z,101185.97
2022-10-06T14:17:57.153Z,101188.00
2022-10-06T14:20:25.044Z,101178.50
2022-10-06T14:22:52.772Z,101181.81
2022-10-06T14:25:20.829Z,101181.72
2022-10-06T14:27:49.004Z,101186.59
2022-10-06T14:30:17.114Z,101183.34
2022-10-06T14:32:44.789Z,101188.09
2022-10-06T14:35:12.503Z,101186.06
2022-10-06T14:37:40.351Z,101187.25
2022-10-06T14:40:11.978Z,101190.81
2022-10-06T14:42:40.266Z,101182.34
2022-10-06T14:45:08.278Z,101184.72
2022-10-06T14:47:36.095Z,101182.84
2022-10-06T14:50:03.979Z,101179.06
2022-10-06T14:52:32.119Z,101180.88
2022-10-06T14:55:00.486Z,101180.22
2022-10-06T14:57:28.656Z,101180.31
2022-10-06T14:59:56.648Z,101184.91
2022-10-06T15:02:25.972Z,101183.78
2022-10-06T15:04:54.110Z,101173.03
2022-10-06T15:07:39.116Z,101176.69
2022-10-06T15:10:06.827Z,101178.34
2022-10-06T15:12:35.050Z,101174.56
2022-10-06T15:15:02.779Z,101177.03
2022-10-06T15:17:30.783Z,101172.00
2022-10-06T15:19:58.589Z,101173.22
2022-10-06T15:22:26.942Z,101155.91
2022-10-06T15:24:55.206Z,101161.59
2022-10-06T15:30:09.021Z,101159.50
2022-10-06T15:32:37.297Z,101163.84
2022-10-06T15:35:05.456Z,101171.22
2022-10-06T15:37:33.330Z,101174.44
2022-10-06T15:40:02.032Z,101182.78
2022-10-06T15:42:30.286Z,101173.13
2022-10-06T15:44:58.141Z,101177.06
2022-10-06T15:47:26.572Z,101176.09
2022-10-06T15:49:54.434Z,101183.91
2022-10-06T15:52:23.429Z,101188.38
2022-10-06T15:54:52.253Z,101182.47
2022-10-06T15:57:21.413Z,101185.75
2022-10-06T15:59:49.991Z,101191.44
2022-10-06T16:02:17.999Z,101190.09
2022-10-06T16:04:58.160Z,101182.25
2022-10-06T16:07:25.912Z,101185.84
2022-10-06T16:09:53.955Z,101189.34
2022-10-06T16:12:22.069Z,101187.97
2022-10-06T16:14:49.806Z,101189.16
2022-10-06T16:17:17.850Z,101187.53
2022-10-06T16:19:45.714Z,101192.84
2022-10-06T16:22:14.007Z,101193.78
2022-10-06T16:24:41.882Z,101191.16
2022-10-06T16:27:09.672Z,101191.19
2022-10-06T16:29:37.521Z,101184.91
2022-10-06T16:32:05.309Z,101197.28
2022-10-06T16:34:33.143Z,101200.81
2022-10-06T16:37:00.901Z,101197.09
2022-10-06T16:39:28.652Z,101190.75
2022-10-06T16:41:57.083Z,101198.59
2022-10-06T16:44:24.810Z,101196.78
2022-10-06T16:46:52.965Z,101194.25
2022-10-06T16:49:21.464Z,101189.00
2022-10-06T16:51:49.353Z,101192.69
2022-10-06T16:54:18.132Z,101194.50
2022-10-06T16:56:46.154Z,101206.88
2022-10-06T16:59:13.875Z,101193.38
2022-10-06T17:01:41.727Z,101201.44
2022-10-06T17:04:09.622Z,101211.16
2022-10-06T17:06:40.032Z,101205.69
2022-10-06T17:09:09.019Z,101201.97
2022-10-06T17:11:37.434Z,101203.78
2022-10-06T17:14:05.232Z,101211.06
2022-10-06T17:16:33.143Z,101219.06
2022-10-06T17:19:01.482Z,101224.50
2022-10-06T17:21:45.471Z,101218.13
2022-10-06T17:24:14.708Z,101223.31
2022-10-06T17:26:42.597Z,101215.78
2022-10-06T17:29:11.508Z,101219.03
2022-10-06T17:31:39.412Z,101216.19
2022-10-06T17:34:07.688Z,101217.72
2022-10-06T17:36:38.183Z,101218.25
2022-10-06T17:39:06.153Z,101219.66
2022-10-06T17:41:34.607Z,101220.09
2022-10-06T17:44:03.477Z,101226.75
2022-10-06T17:46:31.436Z,101224.50
2022-10-06T17:48:59.508Z,101230.31
2022-10-06T17:51:28.555Z,101227.31
2022-10-06T17:53:56.711Z,101234.84
2022-10-06T17:56:24.713Z,101230.97
2022-10-06T17:58:52.745Z,101240.38
2022-10-06T18:01:20.939Z,101235.59
2022-10-06T18:03:48.787Z,101241.44
2022-10-06T18:06:17.372Z,101232.13
2022-10-06T18:08:45.273Z,101233.47
2022-10-06T18:11:30.651Z,101229.66
2022-10-06T18:13:58.753Z,101229.19
2022-10-06T18:16:27.376Z,101228.75
2022-10-06T18:18:55.294Z,101230.03
2022-10-06T18:21:23.187Z,101219.75
2022-10-06T18:23:51.221Z,101227.34
2022-10-06T18:26:19.273Z,101225.06
2022-10-06T18:28:47.888Z,101223.75
2022-10-06T18:31:16.338Z,101227.59
2022-10-06T18:36:10.362Z,101225.22
2022-10-06T18:36:32.468Z,101222.84
2022-10-06T18:39:00.998Z,101224.03
2022-10-06T18:41:28.985Z,101219.09
2022-10-06T18:43:56.904Z,101227.41
2022-10-06T18:46:42.341Z,101226.00
2022-10-06T18:49:13.174Z,101228.84
2022-10-06T18:51:40.979Z,101224.69
2022-10-06T18:54:09.560Z,101219.63
2022-10-06T18:56:37.497Z,101229.66
2022-10-06T18:59:05.302Z,101227.19
2022-10-06T19:01:33.765Z,101225.56
2022-10-06T19:04:02.346Z,101227.19
2022-10-06T19:06:30.101Z,101231.47
2022-10-06T19:09:00.903Z,101232.34
2022-10-06T19:11:46.344Z,101233.16
2022-10-06T19:14:14.594Z,101230.72
2022-10-06T19:16:42.796Z,101231.84
2022-10-06T19:19:11.895Z,101232.91
2022-10-06T19:21:39.926Z,101222.44
2022-10-06T19:24:08.346Z,101225.31
2022-10-06T19:26:36.247Z,101235.31
2022-10-06T19:29:04.064Z,101236.66
2022-10-06T19:31:31.955Z,101237.81
2022-10-06T19:34:01.861Z,101234.47
2022-10-06T19:36:32.490Z,101234.94
2022-10-06T19:39:01.736Z,101241.47
2022-10-06T19:41:47.151Z,101240.06
2022-10-06T19:44:14.884Z,101241.09
2022-10-06T19:46:43.877Z,101238.56
2022-10-06T19:49:11.727Z,101235.78
2022-10-06T19:51:40.621Z,101234.81
2022-10-06T19:54:08.397Z,101234.81
2022-10-06T19:56:36.719Z,101233.22
2022-10-06T19:59:05.152Z,101238.66
2022-10-06T20:01:33.124Z,101241.41
2022-10-06T20:04:01.138Z,101242.44
2022-10-06T20:06:30.655Z,101238.84
2022-10-06T20:08:59.408Z,101242.25
2022-10-06T20:11:27.680Z,101237.03
2022-10-06T20:13:55.549Z,101239.78
2022-10-06T20:16:23.363Z,101240.84
2022-10-06T20:18:51.304Z,101239.97
2022-10-06T20:21:19.091Z,101243.59
2022-10-06T20:23:47.430Z,101247.22
2022-10-06T20:26:15.313Z,101245.50
2022-10-06T20:28:43.196Z,101247.38
2022-10-06T20:31:11.654Z,101249.38
2022-10-06T20:33:39.532Z,101246.44
2022-10-06T20:36:07.720Z,101249.63
2022-10-06T20:38:53.265Z,101243.16
2022-10-06T20:41:21.090Z,101246.38
2022-10-06T20:43:49.346Z,101251.41
2022-10-06T20:46:18.074Z,101258.16
2022-10-06T20:48:46.068Z,101253.25
2022-10-06T20:51:15.079Z,101242.94
2022-10-06T20:53:42.989Z,101245.88
2022-10-06T20:56:10.785Z,101240.84
2022-10-06T20:58:39.199Z,101242.91
2022-10-06T21:01:07.589Z,101242.22
2022-10-06T21:03:35.623Z,101241.53
2022-10-06T21:06:03.435Z,101242.66
2022-10-06T21:08:31.351Z,101233.25
2022-10-06T21:10:59.708Z,101241.56
2022-10-06T21:13:27.499Z,101239.25
2022-10-06T21:15:55.435Z,101237.81
2022-10-06T21:18:24.339Z,101232.78
2022-10-06T21:20:52.534Z,101230.38
2022-10-06T21:23:22.039Z,101230.38
2022-10-06T21:25:49.809Z,101227.53
2022-10-06T21:28:18.692Z,101227.38
2022-10-06T21:30:46.637Z,101225.56
2022-10-06T21:33:14.654Z,101218.53
2022-10-06T21:35:43.057Z,101226.59
2022-10-06T21:38:11.012Z,101229.44
2022-10-06T21:40:38.723Z,101224.31
2022-10-06T21:43:06.436Z,101223.69
2022-10-06T21:45:34.237Z,101223.97
2022-10-06T21:48:02.548Z,101217.19
2022-10-06T21:50:30.272Z,101214.00
2022-10-06T21:52:58.096Z,101215.28
2022-10-06T21:55:25.807Z,101200.69
2022-10-06T21:57:53.555Z,101196.47
2022-10-06T22:00:22.265Z,101201.97
2022-10-06T22:02:50.060Z,101199.47
2022-10-06T22:05:18.255Z,101204.97
2022-10-06T22:07:46.546Z,101196.31
2022-10-06T22:10:14.420Z,101192.94
2022-10-06T22:12:42.955Z,101191.41
2022-10-06T22:15:10.692Z,101191.75
2022-10-06T22:17:38.435Z,101194.66
2022-10-06T22:20:06.067Z,101191.19
2022-10-06T22:22:33.825Z,101194.09
2022-10-06T22:25:01.886Z,101192.47
2022-10-06T22:27:30.016Z,101184.66
2022-10-06T22:29:57.806Z,101198.03
2022-10-06T22:32:25.509Z,101185.78
2022-10-06T22:34:53.886Z,101176.94
2022-10-06T22:37:21.868Z,101177.13
2022-10-06T22:39:49.601Z,101173.78
2022-10-06T22:42:18.650Z,101177.44
2022-10-06T22:44:46.309Z,101175.03
2022-10-06T22:47:14.329Z,101179.66
2022-10-06T22:49:44.440Z,101176.31
2022-10-06T22:52:12.199Z,101172.94
2022-10-06T22:54:39.943Z,101164.28
2022-10-06T22:57:07.559Z,101159.09
2022-10-06T22:59:35.208Z,101154.84
2022-10-06T23:02:03.011Z,101158.59
2022-10-06T23:04:31.076Z,101149.91
2022-10-06T23:06:58.841Z,101149.22
2022-10-06T23:09:26.726Z,101145.94
2022-10-06T23:11:54.876Z,101147.81
2022-10-06T23:14:23.018Z,101140.09
2022-10-06T23:16:50.751Z,101141.13
2022-10-06T23:19:18.416Z,101139.41
2022-10-06T23:21:46.039Z,101126.19
2022-10-06T23:24:13.671Z,101131.59
2022-10-06T23:26:41.834Z,101136.13
2022-10-06T23:29:09.558Z,101129.28
2022-10-06T23:31:37.235Z,101124.97
2022-10-06T23:34:04.864Z,101123.44
2022-10-06T23:36:32.699Z,101119.13
2022-10-06T23:39:00.858Z,101123.66
2022-10-06T23:41:28.545Z,101123.81
2022-10-06T23:43:56.244Z,101114.28
2022-10-06T23:46:23.873Z,101123.31
2022-10-06T23:48:51.488Z,101120.72
2022-10-06T23:51:19.620Z,101119.09
2022-10-06T23:53:47.661Z,101121.91
2022-10-06T23:56:15.292Z,101115.81
2022-10-06T23:58:43.065Z,101107.09
